sensor_id;sensor_type;location;lat;lon;timestamp;P1;durP1;ratioP1;P2;durP2;ratioP2
12774;SDS011;6451;42.630;23.382;2023-01-24T00:01:01;7.27;;;5.20;;
12774;SDS011;6451;42.630;23.382;2023-01-24T00:03:29;6.93;;;4.97;;
12774;SDS011;6451;42.630;23.382;2023-01-24T00:05:56;6.13;;;4.77;;
12774;SDS011;6451;42.630;23.382;2023-01-24T00:08:28;7.23;;;4.70;;
12774;SDS011;6451;42.630;23.382;2023-01-24T00:10:58;6.70;;;4.63;;
12774;SDS011;6451;42.630;23.382;2023-01-24T00:13:29;6.63;;;4.73;;
12774;SDS011;6451;42.630;23.382;2023-01-24T00:16:04;6.17;;;5.13;;
12774;SDS011;6451;42.630;23.382;2023-01-24T00:18:32;6.37;;;4.90;;
12774;SDS011;6451;42.630;23.382;2023-01-24T00:21:03;7.53;;;5.07;;
12774;SDS011;6451;42.630;23.382;2023-01-24T00:23:35;6.80;;;5.03;;
12774;SDS011;6451;42.630;23.382;2023-01-24T00:26:02;6.93;;;5.23;;
12774;SDS011;6451;42.630;23.382;2023-01-24T00:28:32;7.23;;;5.47;;
12774;SDS011;6451;42.630;23.382;2023-01-24T00:30:59;6.70;;;5.40;;
12774;SDS011;6451;42.630;23.382;2023-01-24T00:33:26;7.07;;;5.00;;
12774;SDS011;6451;42.630;23.382;2023-01-24T00:35:53;7.77;;;5.33;;
12774;SDS011;6451;42.630;23.382;2023-01-24T00:38:20;7.73;;;5.70;;
12774;SDS011;6451;42.630;23.382;2023-01-24T00:40:48;7.33;;;5.07;;
12774;SDS011;6451;42.630;23.382;2023-01-24T00:43:16;8.67;;;5.40;;
12774;SDS011;6451;42.630;23.382;2023-01-24T00:45:44;8.27;;;5.30;;
12774;SDS011;6451;42.630;23.382;2023-01-24T00:48:11;7.73;;;5.17;;
12774;SDS011;6451;42.630;23.382;2023-01-24T00:50:39;7.23;;;5.50;;
12774;SDS011;6451;42.630;23.382;2023-01-24T00:53:06;7.20;;;5.50;;
12774;SDS011;6451;42.630;23.382;2023-01-24T00:55:32;6.70;;;4.97;;
12774;SDS011;6451;42.630;23.382;2023-01-24T00:57:59;6.63;;;5.27;;
12774;SDS011;6451;42.630;23.382;2023-01-24T01:00:27;7.73;;;5.20;;
12774;SDS011;6451;42.630;23.382;2023-01-24T01:02:55;8.17;;;5.20;;
12774;SDS011;6451;42.630;23.382;2023-01-24T01:05:24;7.40;;;5.63;;
12774;SDS011;6451;42.630;23.382;2023-01-24T01:07:51;8.43;;;5.60;;
12774;SDS011;6451;42.630;23.382;2023-01-24T01:10:17;8.53;;;5.63;;
12774;SDS011;6451;42.630;23.382;2023-01-24T01:12:44;7.17;;;5.40;;
12774;SDS011;6451;42.630;23.382;2023-01-24T01:15:12;8.27;;;5.90;;
12774;SDS011;6451;42.630;23.382;2023-01-24T01:17:39;9.63;;;6.37;;
12774;SDS011;6451;42.630;23.382;2023-01-24T01:20:08;9.03;;;6.00;;
12774;SDS011;6451;42.630;23.382;2023-01-24T01:22:36;8.20;;;5.90;;
12774;SDS011;6451;42.630;23.382;2023-01-24T01:25:03;7.80;;;5.53;;
12774;SDS011;6451;42.630;23.382;2023-01-24T01:27:30;6.27;;;5.30;;
12774;SDS011;6451;42.630;23.382;2023-01-24T01:29:57;9.37;;;5.90;;
12774;SDS011;6451;42.630;23.382;2023-01-24T01:32:24;9.43;;;6.03;;
12774;SDS011;6451;42.630;23.382;2023-01-24T01:34:51;9.03;;;6.43;;
12774;SDS011;6451;42.630;23.382;2023-01-24T01:37:19;10.20;;;6.10;;
12774;SDS011;6451;42.630;23.382;2023-01-24T01:39:46;9.80;;;6.23;;
12774;SDS011;6451;42.630;23.382;2023-01-24T01:42:12;9.63;;;6.37;;
12774;SDS011;6451;42.630;23.382;2023-01-24T01:44:39;8.77;;;5.80;;
12774;SDS011;6451;42.630;23.382;2023-01-24T01:47:13;9.20;;;6.27;;
12774;SDS011;6451;42.630;23.382;2023-01-24T01:49:46;8.93;;;5.97;;
12774;SDS011;6451;42.630;23.382;2023-01-24T01:52:21;8.67;;;5.50;;
12774;SDS011;6451;42.630;23.382;2023-01-24T01:54:50;9.33;;;6.10;;
12774;SDS011;6451;42.630;23.382;2023-01-24T01:57:20;9.00;;;5.97;;
12774;SDS011;6451;42.630;23.382;2023-01-24T01:59:52;7.00;;;5.07;;
12774;SDS011;6451;42.630;23.382;2023-01-24T02:02:23;7.40;;;5.60;;
12774;SDS011;6451;42.630;23.382;2023-01-24T02:04:52;9.10;;;5.83;;
12774;SDS011;6451;42.630;23.382;2023-01-24T02:07:23;7.00;;;5.33;;
12774;SDS011;6451;42.630;23.382;2023-01-24T02:09:55;7.63;;;5.47;;
12774;SDS011;6451;42.630;23.382;2023-01-24T02:12:25;7.80;;;5.60;;
12774;SDS011;6451;42.630;23.382;2023-01-24T02:14:57;7.93;;;5.37;;
12774;SDS011;6451;42.630;23.382;2023-01-24T02:17:44;7.57;;;5.40;;
12774;SDS011;6451;42.630;23.382;2023-01-24T02:20:23;9.00;;;5.23;;
12774;SDS011;6451;42.630;23.382;2023-01-24T02:23:03;9.60;;;5.43;;
12774;SDS011;6451;42.630;23.382;2023-01-24T02:25:44;6.97;;;5.07;;
12774;SDS011;6451;42.630;23.382;2023-01-24T02:28:17;7.30;;;5.00;;
12774;SDS011;6451;42.630;23.382;2023-01-24T02:30:44;7.17;;;5.00;;
12774;SDS011;6451;42.630;23.382;2023-01-24T02:33:12;6.83;;;5.23;;
12774;SDS011;6451;42.630;23.382;2023-01-24T02:35:40;6.97;;;5.10;;
12774;SDS011;6451;42.630;23.382;2023-01-24T02:38:11;6.53;;;5.10;;
12774;SDS011;6451;42.630;23.382;2023-01-24T02:40:42;5.90;;;4.60;;
12774;SDS011;6451;42.630;23.382;2023-01-24T02:43:09;7.13;;;5.13;;
12774;SDS011;6451;42.630;23.382;2023-01-24T02:45:40;5.03;;;4.20;;
12774;SDS011;6451;42.630;23.382;2023-01-24T02:48:07;6.43;;;4.83;;
12774;SDS011;6451;42.630;23.382;2023-01-24T02:50:35;7.20;;;4.70;;
12774;SDS011;6451;42.630;23.382;2023-01-24T02:53:16;5.07;;;4.20;;
12774;SDS011;6451;42.630;23.382;2023-01-24T02:55:57;6.30;;;3.90;;
12774;SDS011;6451;42.630;23.382;2023-01-24T02:58:43;5.40;;;4.50;;
12774;SDS011;6451;42.630;23.382;2023-01-24T03:01:11;6.00;;;4.50;;
12774;SDS011;6451;42.630;23.382;2023-01-24T03:03:40;6.43;;;4.77;;
12774;SDS011;6451;42.630;23.382;2023-01-24T03:06:07;6.50;;;4.60;;
12774;SDS011;6451;42.630;23.382;2023-01-24T03:08:34;5.30;;;3.93;;
12774;SDS011;6451;42.630;23.382;2023-01-24T03:11:01;6.03;;;4.60;;
12774;SDS011;6451;42.630;23.382;2023-01-24T03:13:29;5.67;;;4.40;;
12774;SDS011;6451;42.630;23.382;2023-01-24T03:16:15;4.80;;;3.57;;
12774;SDS011;6451;42.630;23.382;2023-01-24T03:19:00;5.67;;;3.90;;
12774;SDS011;6451;42.630;23.382;2023-01-24T03:21:45;4.47;;;3.77;;
12774;SDS011;6451;42.630;23.382;2023-01-24T03:24:29;5.93;;;4.07;;
12774;SDS011;6451;42.630;23.382;2023-01-24T03:27:14;5.33;;;4.30;;
12774;SDS011;6451;42.630;23.382;2023-01-24T03:29:59;5.00;;;4.13;;
12774;SDS011;6451;42.630;23.382;2023-01-24T03:32:45;4.80;;;3.97;;
12774;SDS011;6451;42.630;23.382;2023-01-24T03:35:30;6.17;;;4.70;;
12774;SDS011;6451;42.630;23.382;2023-01-24T03:37:57;4.93;;;4.17;;
12774;SDS011;6451;42.630;23.382;2023-01-24T03:40:42;4.93;;;4.00;;
12774;SDS011;6451;42.630;23.382;2023-01-24T03:43:09;5.27;;;3.70;;
12774;SDS011;6451;42.630;23.382;2023-01-24T03:45:36;4.33;;;3.80;;
12774;SDS011;6451;42.630;23.382;2023-01-24T03:48:07;4.80;;;4.13;;
12774;SDS011;6451;42.630;23.382;2023-01-24T03:50:38;6.17;;;4.83;;
12774;SDS011;6451;42.630;23.382;2023-01-24T03:53:25;4.53;;;3.97;;
12774;SDS011;6451;42.630;23.382;2023-01-24T03:55:53;4.63;;;4.03;;
12774;SDS011;6451;42.630;23.382;2023-01-24T03:58:22;5.27;;;3.90;;
12774;SDS011;6451;42.630;23.382;2023-01-24T04:00:50;4.60;;;3.90;;
12774;SDS011;6451;42.630;23.382;2023-01-24T04:03:20;4.50;;;3.93;;
12774;SDS011;6451;42.630;23.382;2023-01-24T04:05:46;4.93;;;4.23;;
12774;SDS011;6451;42.630;23.382;2023-01-24T04:08:14;6.00;;;4.40;;
12774;SDS011;6451;42.630;23.382;2023-01-24T04:10:41;5.90;;;4.30;;
12774;SDS011;6451;42.630;23.382;2023-01-24T04:13:07;5.73;;;4.40;;
12774;SDS011;6451;42.630;23.382;2023-01-24T04:15:36;4.97;;;4.47;;
12774;SDS011;6451;42.630;23.382;2023-01-24T04:18:03;4.50;;;4.10;;
12774;SDS011;6451;42.630;23.382;2023-01-24T04:20:35;4.50;;;4.10;;
12774;SDS011;6451;42.630;23.382;2023-01-24T04:23:03;5.07;;;4.10;;
12774;SDS011;6451;42.630;23.382;2023-01-24T04:25:32;4.37;;;3.83;;
12774;SDS011;6451;42.630;23.382;2023-01-24T04:27:59;4.90;;;3.93;;
12774;SDS011;6451;42.630;23.382;2023-01-24T04:30:26;5.23;;;4.20;;
12774;SDS011;6451;42.630;23.382;2023-01-24T04:32:53;4.50;;;4.10;;
12774;SDS011;6451;42.630;23.382;2023-01-24T04:35:21;5.57;;;4.37;;
12774;SDS011;6451;42.630;23.382;2023-01-24T04:37:52;7.30;;;4.20;;
12774;SDS011;6451;42.630;23.382;2023-01-24T04:40:19;4.60;;;4.17;;
12774;SDS011;6451;42.630;23.382;2023-01-24T04:42:45;5.07;;;4.33;;
12774;SDS011;6451;42.630;23.382;2023-01-24T04:45:12;4.70;;;3.93;;
12774;SDS011;6451;42.630;23.382;2023-01-24T04:47:40;4.50;;;4.10;;
12774;SDS011;6451;42.630;23.382;2023-01-24T04:50:07;5.73;;;3.77;;
12774;SDS011;6451;42.630;23.382;2023-01-24T04:52:38;5.37;;;4.40;;
12774;SDS011;6451;42.630;23.382;2023-01-24T04:55:06;4.50;;;4.10;;
12774;SDS011;6451;42.630;23.382;2023-01-24T04:57:33;4.47;;;3.87;;
12774;SDS011;6451;42.630;23.382;2023-01-24T05:00:00;5.07;;;3.97;;
12774;SDS011;6451;42.630;23.382;2023-01-24T05:02:27;4.23;;;3.73;;
12774;SDS011;6451;42.630;23.382;2023-01-24T05:04:54;5.13;;;4.50;;
12774;SDS011;6451;42.630;23.382;2023-01-24T05:07:21;6.00;;;4.70;;
12774;SDS011;6451;42.630;23.382;2023-01-24T05:09:48;7.37;;;5.13;;
12774;SDS011;6451;42.630;23.382;2023-01-24T05:12:16;6.20;;;4.63;;
12774;SDS011;6451;42.630;23.382;2023-01-24T05:14:43;6.43;;;5.07;;
12774;SDS011;6451;42.630;23.382;2023-01-24T05:17:10;5.87;;;5.27;;
12774;SDS011;6451;42.630;23.382;2023-01-24T05:19:37;5.67;;;4.80;;
12774;SDS011;6451;42.630;23.382;2023-01-24T05:22:03;7.40;;;5.30;;
12774;SDS011;6451;42.630;23.382;2023-01-24T05:24:30;7.53;;;5.53;;
12774;SDS011;6451;42.630;23.382;2023-01-24T05:26:57;6.93;;;5.70;;
12774;SDS011;6451;42.630;23.382;2023-01-24T05:29:25;6.90;;;5.73;;
12774;SDS011;6451;42.630;23.382;2023-01-24T05:31:52;6.90;;;5.67;;
12774;SDS011;6451;42.630;23.382;2023-01-24T05:34:19;8.93;;;6.13;;
12774;SDS011;6451;42.630;23.382;2023-01-24T05:36:46;8.83;;;6.80;;
12774;SDS011;6451;42.630;23.382;2023-01-24T05:39:13;8.53;;;6.43;;
12774;SDS011;6451;42.630;23.382;2023-01-24T05:41:40;6.20;;;5.60;;
12774;SDS011;6451;42.630;23.382;2023-01-24T05:44:07;7.57;;;5.80;;
12774;SDS011;6451;42.630;23.382;2023-01-24T05:46:35;7.67;;;5.80;;
12774;SDS011;6451;42.630;23.382;2023-01-24T05:49:03;6.07;;;5.20;;
12774;SDS011;6451;42.630;23.382;2023-01-24T05:51:31;6.07;;;5.03;;
12774;SDS011;6451;42.630;23.382;2023-01-24T05:53:58;6.30;;;5.40;;
12774;SDS011;6451;42.630;23.382;2023-01-24T05:56:25;6.37;;;5.03;;
12774;SDS011;6451;42.630;23.382;2023-01-24T05:58:52;5.60;;;4.97;;
12774;SDS011;6451;42.630;23.382;2023-01-24T06:01:20;8.03;;;5.30;;
12774;SDS011;6451;42.630;23.382;2023-01-24T06:03:50;7.57;;;5.33;;
12774;SDS011;6451;42.630;23.382;2023-01-24T06:06:19;6.27;;;5.10;;
12774;SDS011;6451;42.630;23.382;2023-01-24T06:08:46;6.60;;;4.83;;
12774;SDS011;6451;42.630;23.382;2023-01-24T06:11:14;7.50;;;5.63;;
12774;SDS011;6451;42.630;23.382;2023-01-24T06:13:42;7.20;;;5.83;;
12774;SDS011;6451;42.630;23.382;2023-01-24T06:16:11;6.20;;;5.60;;
12774;SDS011;6451;42.630;23.382;2023-01-24T06:18:39;9.30;;;6.90;;
12774;SDS011;6451;42.630;23.382;2023-01-24T06:21:13;6.17;;;5.17;;
12774;SDS011;6451;42.630;23.382;2023-01-24T06:23:46;5.80;;;5.00;;
12774;SDS011;6451;42.630;23.382;2023-01-24T06:26:13;5.70;;;5.00;;
12774;SDS011;6451;42.630;23.382;2023-01-24T06:28:41;6.20;;;5.60;;
12774;SDS011;6451;42.630;23.382;2023-01-24T06:31:11;7.13;;;6.10;;
12774;SDS011;6451;42.630;23.382;2023-01-24T06:33:51;9.33;;;6.87;;
12774;SDS011;6451;42.630;23.382;2023-01-24T06:36:33;7.00;;;5.50;;
12774;SDS011;6451;42.630;23.382;2023-01-24T06:39:12;9.30;;;6.80;;
12774;SDS011;6451;42.630;23.382;2023-01-24T06:41:41;8.13;;;6.23;;
12774;SDS011;6451;42.630;23.382;2023-01-24T06:44:08;8.43;;;6.87;;
12774;SDS011;6451;42.630;23.382;2023-01-24T06:46:36;8.70;;;6.73;;
12774;SDS011;6451;42.630;23.382;2023-01-24T06:49:03;9.80;;;7.00;;
12774;SDS011;6451;42.630;23.382;2023-01-24T06:51:30;9.60;;;7.10;;
12774;SDS011;6451;42.630;23.382;2023-01-24T06:53:59;8.70;;;7.10;;
12774;SDS011;6451;42.630;23.382;2023-01-24T06:56:26;7.90;;;6.43;;
12774;SDS011;6451;42.630;23.382;2023-01-24T06:58:53;8.57;;;5.83;;
12774;SDS011;6451;42.630;23.382;2023-01-24T07:01:20;7.23;;;5.37;;
12774;SDS011;6451;42.630;23.382;2023-01-24T07:03:46;6.33;;;5.23;;
12774;SDS011;6451;42.630;23.382;2023-01-24T07:06:13;7.10;;;5.93;;
12774;SDS011;6451;42.630;23.382;2023-01-24T07:08:40;8.97;;;6.20;;
12774;SDS011;6451;42.630;23.382;2023-01-24T07:11:08;8.43;;;6.30;;
12774;SDS011;6451;42.630;23.382;2023-01-24T07:13:35;7.90;;;6.03;;
12774;SDS011;6451;42.630;23.382;2023-01-24T07:16:04;8.57;;;6.50;;
12774;SDS011;6451;42.630;23.382;2023-01-24T07:18:32;10.07;;;7.30;;
12774;SDS011;6451;42.630;23.382;2023-01-24T07:20:59;10.90;;;7.57;;
12774;SDS011;6451;42.630;23.382;2023-01-24T07:23:31;7.50;;;5.60;;
12774;SDS011;6451;42.630;23.382;2023-01-24T07:25:59;6.17;;;5.33;;
12774;SDS011;6451;42.630;23.382;2023-01-24T07:28:29;6.67;;;5.17;;
12774;SDS011;6451;42.630;23.382;2023-01-24T07:30:56;7.27;;;4.87;;
12774;SDS011;6451;42.630;23.382;2023-01-24T07:33:23;6.67;;;5.00;;
12774;SDS011;6451;42.630;23.382;2023-01-24T07:35:50;9.33;;;5.17;;
12774;SDS011;6451;42.630;23.382;2023-01-24T07:38:17;7.17;;;5.50;;
12774;SDS011;6451;42.630;23.382;2023-01-24T07:40:44;6.27;;;4.70;;
12774;SDS011;6451;42.630;23.382;2023-01-24T07:43:10;6.30;;;4.77;;
12774;SDS011;6451;42.630;23.382;2023-01-24T07:45:39;6.43;;;4.80;;
12774;SDS011;6451;42.630;23.382;2023-01-24T07:48:06;5.00;;;4.20;;
12774;SDS011;6451;42.630;23.382;2023-01-24T07:50:33;6.57;;;4.37;;
12774;SDS011;6451;42.630;23.382;2023-01-24T07:53:01;5.73;;;4.43;;
12774;SDS011;6451;42.630;23.382;2023-01-24T07:55:28;6.23;;;4.70;;
12774;SDS011;6451;42.630;23.382;2023-01-24T07:57:58;5.20;;;4.40;;
12774;SDS011;6451;42.630;23.382;2023-01-24T08:00:26;5.43;;;4.20;;
12774;SDS011;6451;42.630;23.382;2023-01-24T08:02:54;4.60;;;3.60;;
12774;SDS011;6451;42.630;23.382;2023-01-24T08:05:21;4.87;;;3.97;;
12774;SDS011;6451;42.630;23.382;2023-01-24T08:07:48;4.97;;;3.90;;
12774;SDS011;6451;42.630;23.382;2023-01-24T08:10:15;4.70;;;3.57;;
12774;SDS011;6451;42.630;23.382;2023-01-24T08:12:42;6.27;;;3.90;;
12774;SDS011;6451;42.630;23.382;2023-01-24T08:15:09;5.50;;;4.27;;
12774;SDS011;6451;42.630;23.382;2023-01-24T08:17:37;6.20;;;4.57;;
12774;SDS011;6451;42.630;23.382;2023-01-24T08:20:07;6.20;;;4.30;;
12774;SDS011;6451;42.630;23.382;2023-01-24T08:22:34;7.20;;;4.07;;
12774;SDS011;6451;42.630;23.382;2023-01-24T08:25:04;4.97;;;4.07;;
12774;SDS011;6451;42.630;23.382;2023-01-24T08:27:31;5.17;;;3.83;;
12774;SDS011;6451;42.630;23.382;2023-01-24T08:29:58;5.20;;;4.03;;
12774;SDS011;6451;42.630;23.382;2023-01-24T08:32:25;5.07;;;3.60;;
12774;SDS011;6451;42.630;23.382;2023-01-24T08:34:52;5.00;;;3.70;;
12774;SDS011;6451;42.630;23.382;2023-01-24T08:37:21;5.97;;;4.10;;
12774;SDS011;6451;42.630;23.382;2023-01-24T08:39:49;7.67;;;4.23;;
12774;SDS011;6451;42.630;23.382;2023-01-24T08:42:16;6.13;;;4.33;;
12774;SDS011;6451;42.630;23.382;2023-01-24T08:44:42;6.10;;;4.30;;
12774;SDS011;6451;42.630;23.382;2023-01-24T08:47:09;5.37;;;4.00;;
12774;SDS011;6451;42.630;23.382;2023-01-24T08:49:36;4.20;;;3.73;;
12774;SDS011;6451;42.630;23.382;2023-01-24T08:52:03;4.13;;;3.50;;
12774;SDS011;6451;42.630;23.382;2023-01-24T08:54:33;4.57;;;3.77;;
12774;SDS011;6451;42.630;23.382;2023-01-24T08:57:02;5.07;;;3.50;;
12774;SDS011;6451;42.630;23.382;2023-01-24T08:59:30;4.27;;;3.30;;
12774;SDS011;6451;42.630;23.382;2023-01-24T09:01:57;4.90;;;3.50;;
12774;SDS011;6451;42.630;23.382;2023-01-24T09:04:23;4.70;;;3.43;;
12774;SDS011;6451;42.630;23.382;2023-01-24T09:06:51;4.87;;;3.20;;
12774;SDS011;6451;42.630;23.382;2023-01-24T09:09:19;4.80;;;3.70;;
12774;SDS011;6451;42.630;23.382;2023-01-24T09:11:48;5.07;;;3.87;;
12774;SDS011;6451;42.630;23.382;2023-01-24T09:14:15;4.97;;;3.93;;
12774;SDS011;6451;42.630;23.382;2023-01-24T09:16:41;5.23;;;4.30;;
12774;SDS011;6451;42.630;23.382;2023-01-24T09:19:10;5.10;;;4.30;;
12774;SDS011;6451;42.630;23.382;2023-01-24T09:21:37;6.73;;;4.33;;
12774;SDS011;6451;42.630;23.382;2023-01-24T09:24:04;4.10;;;3.40;;
12774;SDS011;6451;42.630;23.382;2023-01-24T09:26:32;4.20;;;3.80;;
12774;SDS011;6451;42.630;23.382;2023-01-24T09:29:01;4.07;;;3.43;;
12774;SDS011;6451;42.630;23.382;2023-01-24T09:31:28;4.33;;;3.80;;
12774;SDS011;6451;42.630;23.382;2023-01-24T09:33:55;3.43;;;3.10;;
12774;SDS011;6451;42.630;23.382;2023-01-24T09:36:22;4.47;;;3.40;;
12774;SDS011;6451;42.630;23.382;2023-01-24T09:38:49;3.80;;;3.30;;
12774;SDS011;6451;42.630;23.382;2023-01-24T09:41:17;3.63;;;3.03;;
12774;SDS011;6451;42.630;23.382;2023-01-24T09:43:52;4.20;;;3.50;;
12774;SDS011;6451;42.630;23.382;2023-01-24T09:46:25;3.97;;;3.20;;
12774;SDS011;6451;42.630;23.382;2023-01-24T09:49:02;3.70;;;3.03;;
12774;SDS011;6451;42.630;23.382;2023-01-24T09:51:38;3.93;;;2.93;;
12774;SDS011;6451;42.630;23.382;2023-01-24T09:54:13;3.63;;;2.90;;
12774;SDS011;6451;42.630;23.382;2023-01-24T09:56:43;3.27;;;2.90;;
12774;SDS011;6451;42.630;23.382;2023-01-24T09:59:19;3.20;;;2.83;;
12774;SDS011;6451;42.630;23.382;2023-01-24T10:01:50;3.00;;;2.70;;
12774;SDS011;6451;42.630;23.382;2023-01-24T10:04:21;2.93;;;2.40;;
12774;SDS011;6451;42.630;23.382;2023-01-24T10:06:58;4.13;;;3.10;;
12774;SDS011;6451;42.630;23.382;2023-01-24T10:09:51;3.13;;;2.80;;
12774;SDS011;6451;42.630;23.382;2023-01-24T10:12:35;3.37;;;2.90;;
12774;SDS011;6451;42.630;23.382;2023-01-24T10:15:13;3.27;;;2.60;;
12774;SDS011;6451;42.630;23.382;2023-01-24T10:17:55;2.10;;;1.90;;
12774;SDS011;6451;42.630;23.382;2023-01-24T10:20:43;2.77;;;2.37;;
12774;SDS011;6451;42.630;23.382;2023-01-24T10:23:18;2.23;;;2.03;;
12774;SDS011;6451;42.630;23.382;2023-01-24T10:25:51;4.03;;;2.50;;
12774;SDS011;6451;42.630;23.382;2023-01-24T10:28:26;3.30;;;2.70;;
12774;SDS011;6451;42.630;23.382;2023-01-24T10:30:56;3.57;;;2.70;;
12774;SDS011;6451;42.630;23.382;2023-01-24T10:33:31;2.63;;;2.17;;
12774;SDS011;6451;42.630;23.382;2023-01-24T10:36:03;3.07;;;2.67;;
12774;SDS011;6451;42.630;23.382;2023-01-24T10:38:34;2.43;;;2.23;;
12774;SDS011;6451;42.630;23.382;2023-01-24T10:41:09;2.43;;;2.03;;
12774;SDS011;6451;42.630;23.382;2023-01-24T10:43:44;3.63;;;1.97;;
12774;SDS011;6451;42.630;23.382;2023-01-24T10:49:29;3.73;;;2.60;;
12774;SDS011;6451;42.630;23.382;2023-01-24T10:52:08;4.00;;;2.70;;
12774;SDS011;6451;42.630;23.382;2023-01-24T10:54:47;2.60;;;2.40;;
12774;SDS011;6451;42.630;23.382;2023-01-24T10:57:20;3.07;;;2.70;;
12774;SDS011;6451;42.630;23.382;2023-01-24T11:00:00;5.13;;;2.97;;
12774;SDS011;6451;42.630;23.382;2023-01-24T11:02:31;4.17;;;3.30;;
12774;SDS011;6451;42.630;23.382;2023-01-24T11:05:04;3.80;;;2.70;;
12774;SDS011;6451;42.630;23.382;2023-01-24T11:07:33;3.37;;;2.60;;
12774;SDS011;6451;42.630;23.382;2023-01-24T11:10:07;3.93;;;2.70;;
12774;SDS011;6451;42.630;23.382;2023-01-24T11:12:46;3.33;;;2.83;;
12774;SDS011;6451;42.630;23.382;2023-01-24T11:15:15;3.90;;;2.33;;
12774;SDS011;6451;42.630;23.382;2023-01-24T11:17:46;3.20;;;2.50;;
12774;SDS011;6451;42.630;23.382;2023-01-24T11:20:22;3.77;;;2.90;;
12774;SDS011;6451;42.630;23.382;2023-01-24T11:23:01;4.67;;;2.80;;
12774;SDS011;6451;42.630;23.382;2023-01-24T11:25:30;3.37;;;2.57;;
12774;SDS011;6451;42.630;23.382;2023-01-24T11:27:57;3.80;;;2.40;;
12774;SDS011;6451;42.630;23.382;2023-01-24T11:30:25;2.97;;;2.43;;
12774;SDS011;6451;42.630;23.382;2023-01-24T11:33:01;2.93;;;2.43;;
12774;SDS011;6451;42.630;23.382;2023-01-24T11:35:45;3.00;;;2.70;;
12774;SDS011;6451;42.630;23.382;2023-01-24T11:38:25;2.90;;;2.37;;
12774;SDS011;6451;42.630;23.382;2023-01-24T11:41:03;3.10;;;2.40;;
12774;SDS011;6451;42.630;23.382;2023-01-24T11:43:40;3.40;;;2.30;;
12774;SDS011;6451;42.630;23.382;2023-01-24T11:46:49;3.60;;;2.80;;
12774;SDS011;6451;42.630;23.382;2023-01-24T11:49:26;3.67;;;2.60;;
12774;SDS011;6451;42.630;23.382;2023-01-24T11:52:12;2.30;;;2.10;;
12774;SDS011;6451;42.630;23.382;2023-01-24T11:54:55;3.10;;;2.13;;
12774;SDS011;6451;42.630;23.382;2023-01-24T11:57:30;2.10;;;1.90;;
12774;SDS011;6451;42.630;23.382;2023-01-24T12:00:14;2.77;;;1.90;;
12774;SDS011;6451;42.630;23.382;2023-01-24T12:02:59;2.90;;;2.07;;
12774;SDS011;6451;42.630;23.382;2023-01-24T12:05:48;2.23;;;2.03;;
12774;SDS011;6451;42.630;23.382;2023-01-24T12:08:37;2.40;;;2.20;;
12774;SDS011;6451;42.630;23.382;2023-01-24T12:11:23;2.50;;;2.30;;
12774;SDS011;6451;42.630;23.382;2023-01-24T12:13:58;2.60;;;2.30;;
12774;SDS011;6451;42.630;23.382;2023-01-24T12:16:41;3.00;;;2.70;;
12774;SDS011;6451;42.630;23.382;2023-01-24T12:19:21;2.60;;;2.20;;
12774;SDS011;6451;42.630;23.382;2023-01-24T12:21:58;3.63;;;2.70;;
12774;SDS011;6451;42.630;23.382;2023-01-24T12:24:28;3.37;;;2.47;;
12774;SDS011;6451;42.630;23.382;2023-01-24T12:26:58;3.77;;;2.50;;
12774;SDS011;6451;42.630;23.382;2023-01-24T12:29:28;3.20;;;2.33;;
12774;SDS011;6451;42.630;23.382;2023-01-24T12:32:00;3.07;;;2.53;;
12774;SDS011;6451;42.630;23.382;2023-01-24T12:34:34;5.77;;;2.17;;
12774;SDS011;6451;42.630;23.382;2023-01-24T12:37:09;3.00;;;2.47;;
12774;SDS011;6451;42.630;23.382;2023-01-24T12:39:46;2.90;;;2.40;;
12774;SDS011;6451;42.630;23.382;2023-01-24T12:42:19;4.17;;;2.10;;
12774;SDS011;6451;42.630;23.382;2023-01-24T12:44:52;3.07;;;2.40;;
12774;SDS011;6451;42.630;23.382;2023-01-24T12:47:30;2.40;;;2.10;;
12774;SDS011;6451;42.630;23.382;2023-01-24T12:50:08;2.17;;;1.97;;
12774;SDS011;6451;42.630;23.382;2023-01-24T12:52:46;3.73;;;1.77;;
12774;SDS011;6451;42.630;23.382;2023-01-24T12:55:24;3.00;;;2.10;;
12774;SDS011;6451;42.630;23.382;2023-01-24T12:57:56;3.03;;;2.33;;
12774;SDS011;6451;42.630;23.382;2023-01-24T13:00:29;3.20;;;2.50;;
12774;SDS011;6451;42.630;23.382;2023-01-24T13:03:25;3.43;;;2.57;;
12774;SDS011;6451;42.630;23.382;2023-01-24T13:06:09;3.70;;;2.40;;
12774;SDS011;6451;42.630;23.382;2023-01-24T13:08:49;3.73;;;2.17;;
12774;SDS011;6451;42.630;23.382;2023-01-24T13:11:26;2.57;;;2.33;;
12774;SDS011;6451;42.630;23.382;2023-01-24T13:14:01;2.17;;;1.93;;
12774;SDS011;6451;42.630;23.382;2023-01-24T13:19:44;2.63;;;2.23;;
12774;SDS011;6451;42.630;23.382;2023-01-24T13:22:35;2.73;;;2.10;;
12774;SDS011;6451;42.630;23.382;2023-01-24T13:25:20;2.27;;;1.90;;
12774;SDS011;6451;42.630;23.382;2023-01-24T13:28:13;2.37;;;2.03;;
12774;SDS011;6451;42.630;23.382;2023-01-24T13:30:49;2.63;;;2.20;;
12774;SDS011;6451;42.630;23.382;2023-01-24T13:33:32;2.40;;;2.00;;
12774;SDS011;6451;42.630;23.382;2023-01-24T13:36:03;2.87;;;1.97;;
12774;SDS011;6451;42.630;23.382;2023-01-24T13:38:35;2.53;;;2.03;;
12774;SDS011;6451;42.630;23.382;2023-01-24T13:41:07;2.93;;;2.03;;
12774;SDS011;6451;42.630;23.382;2023-01-24T13:43:52;2.87;;;2.30;;
12774;SDS011;6451;42.630;23.382;2023-01-24T13:49:33;3.40;;;2.50;;
12774;SDS011;6451;42.630;23.382;2023-01-24T13:52:02;2.80;;;2.27;;
12774;SDS011;6451;42.630;23.382;2023-01-24T13:54:37;4.70;;;2.73;;
12774;SDS011;6451;42.630;23.382;2023-01-24T13:57:14;2.47;;;2.27;;
12774;SDS011;6451;42.630;23.382;2023-01-24T14:00:00;2.83;;;2.20;;
12774;SDS011;6451;42.630;23.382;2023-01-24T14:02:40;3.27;;;2.40;;
12774;SDS011;6451;42.630;23.382;2023-01-24T14:08:00;3.13;;;2.40;;
12774;SDS011;6451;42.630;23.382;2023-01-24T14:10:32;2.30;;;2.10;;
12774;SDS011;6451;42.630;23.382;2023-01-24T14:13:00;3.30;;;2.67;;
12774;SDS011;6451;42.630;23.382;2023-01-24T14:15:41;3.47;;;2.70;;
12774;SDS011;6451;42.630;23.382;2023-01-24T14:21:12;3.80;;;2.90;;
12774;SDS011;6451;42.630;23.382;2023-01-24T14:23:40;6.70;;;3.67;;
12774;SDS011;6451;42.630;23.382;2023-01-24T14:26:11;4.87;;;3.43;;
12774;SDS011;6451;42.630;23.382;2023-01-24T14:28:42;3.13;;;2.83;;
12774;SDS011;6451;42.630;23.382;2023-01-24T14:31:18;3.50;;;2.90;;
12774;SDS011;6451;42.630;23.382;2023-01-24T14:33:51;4.43;;;3.10;;
12774;SDS011;6451;42.630;23.382;2023-01-24T14:36:23;5.37;;;3.57;;
12774;SDS011;6451;42.630;23.382;2023-01-24T14:39:12;3.67;;;2.70;;
12774;SDS011;6451;42.630;23.382;2023-01-24T14:41:44;3.63;;;2.90;;
12774;SDS011;6451;42.630;23.382;2023-01-24T14:44:16;3.20;;;2.70;;
12774;SDS011;6451;42.630;23.382;2023-01-24T14:46:56;3.30;;;2.73;;
12774;SDS011;6451;42.630;23.382;2023-01-24T14:49:25;2.77;;;2.47;;
12774;SDS011;6451;42.630;23.382;2023-01-24T14:51:55;6.87;;;2.37;;
12774;SDS011;6451;42.630;23.382;2023-01-24T14:54:22;2.60;;;2.30;;
12774;SDS011;6451;42.630;23.382;2023-01-24T14:56:50;3.97;;;2.30;;
12774;SDS011;6451;42.630;23.382;2023-01-24T14:59:20;10.47;;;7.47;;
12774;SDS011;6451;42.630;23.382;2023-01-24T15:01:49;5.03;;;3.97;;
12774;SDS011;6451;42.630;23.382;2023-01-24T15:04:22;4.40;;;3.30;;
12774;SDS011;6451;42.630;23.382;2023-01-24T15:07:04;3.27;;;2.80;;
12774;SDS011;6451;42.630;23.382;2023-01-24T15:09:32;3.03;;;2.53;;
12774;SDS011;6451;42.630;23.382;2023-01-24T15:12:10;3.67;;;2.70;;
12774;SDS011;6451;42.630;23.382;2023-01-24T15:14:39;4.70;;;3.27;;
12774;SDS011;6451;42.630;23.382;2023-01-24T15:17:14;4.57;;;3.40;;
12774;SDS011;6451;42.630;23.382;2023-01-24T15:19:46;6.90;;;4.17;;
12774;SDS011;6451;42.630;23.382;2023-01-24T15:22:18;7.50;;;4.63;;
12774;SDS011;6451;42.630;23.382;2023-01-24T15:24:50;5.60;;;4.30;;
12774;SDS011;6451;42.630;23.382;2023-01-24T15:27:22;7.73;;;5.27;;
12774;SDS011;6451;42.630;23.382;2023-01-24T15:30:12;8.57;;;5.57;;